Time;durP1;ratioP1;P1;durP2;ratioP2;P2;SDS_P1;SDS_P2;PMS_P1;PMS_P2;Temp;Humidity;BMP_temperature;BMP_pressure;BME280_temperature;BME280_humidity;BME280_pressure;Samples;Min_cycle;Max_cycle;Signal;HPM_P1;HPM_P2
2023/06/29 00:04:01;;;;;;;1.90;0.80;;;;;;;15.27;100.00;98496.69;15268203;19;20015;-54
2023/06/29 00:09:28;;;;;;;2.92;0.90;;;;;;;15.22;100.00;98494.53;15266047;19;20510;-55
2023/06/29 00:14:53;;;;;;;3.28;0.82;;;;;;;15.20;100.00;98501.22;15268422;19;20404;-53
2023/06/29 00:20:18;;;;;;;2.83;0.80;;;;;;;15.14;100.00;98501.94;15265289;19;20049;-54
2023/06/29 00:25:47;;;;;;;1.55;0.80;;;;;;;15.06;100.00;98492.03;15267403;19;20665;-53
2023/06/29 00:31:12;;;;;;;1.08;0.70;;;;;;;14.98;100.00;98492.13;15271164;19;20013;-52
2023/06/29 00:36:37;;;;;;;1.58;0.63;;;;;;;14.94;100.00;98494.38;15272927;19;20485;-52
2023/06/29 00:42:04;;;;;;;1.70;0.90;;;;;;;14.89;100.00;98499.53;15280616;19;20475;-54
2023/06/29 00:47:30;;;;;;;1.58;0.80;;;;;;;14.85;100.00;98498.22;15279517;19;20019;-49
2023/06/29 00:52:54;;;;;;;2.72;0.80;;;;;;;14.81;100.00;98495.06;15281854;19;20031;-49
2023/06/29 00:58:22;;;;;;;1.08;0.80;;;;;;;14.77;100.00;98491.84;15282136;19;20595;-50
2023/06/29 01:03:48;;;;;;;1.17;0.73;;;;;;;14.72;100.00;98493.44;15280647;19;20018;-52
2023/06/29 01:09:15;;;;;;;1.70;0.90;;;;;;;14.68;100.00;98492.97;15281770;19;20110;-53
2023/06/29 01:14:46;;;;;;;1.50;0.80;;;;;;;14.60;100.00;98484.91;15276328;19;20019;-53
2023/06/29 01:20:14;;;;;;;2.97;0.80;;;;;;;14.51;100.00;98481.44;15277414;19;20011;-49
2023/06/29 01:25:43;;;;;;;1.25;0.75;;;;;;;14.44;100.00;98473.19;15280226;19;20535;-51
2023/06/29 01:31:11;;;;;;;1.88;0.85;;;;;;;14.31;100.00;98471.13;15280292;19;20010;-53
2023/06/29 01:36:42;;;;;;;2.05;0.98;;;;;;;14.12;100.00;98467.06;15277238;19;20023;-53
2023/06/29 01:42:11;;;;;;;1.67;0.80;;;;;;;14.00;100.00;98461.25;15280855;19;20014;-55
2023/06/29 01:47:37;;;;;;;2.47;1.13;;;;;;;13.97;100.00;98460.75;15270466;19;20027;-54
2023/06/29 01:53:02;;;;;;;1.98;0.90;;;;;;;13.96;100.00;98464.50;15279347;19;20013;-53
2023/06/29 01:58:30;;;;;;;1.13;0.82;;;;;;;13.95;100.00;98462.81;15277604;19;20018;-54
2023/06/29 02:04:01;;;;;;;1.25;0.70;;;;;;;13.93;100.00;98452.16;15276406;19;20021;-55
2023/06/29 02:09:29;;;;;;;1.45;0.82;;;;;;;13.92;100.00;98463.19;15281318;19;20015;-51
2023/06/29 02:14:57;;;;;;;1.52;0.73;;;;;;;13.87;100.00;98463.75;15275226;19;20017;-52
2023/06/29 02:20:21;;;;;;;2.67;0.90;;;;;;;13.83;100.00;98457.81;15271668;19;20015;-53
2023/06/29 02:25:45;;;;;;;2.72;1.00;;;;;;;13.82;100.00;98460.72;15274236;19;20018;-50
2023/06/29 02:31:13;;;;;;;2.13;0.73;;;;;;;13.76;100.00;98450.63;15276360;19;20022;-52
2023/06/29 02:36:39;;;;;;;1.58;0.80;;;;;;;13.68;100.00;98452.34;15272553;19;20021;-50
2023/06/29 02:42:05;;;;;;;4.30;1.00;;;;;;;13.60;100.00;98456.97;15274576;19;20526;-51
2023/06/29 02:47:32;;;;;;;3.65;1.05;;;;;;;13.51;100.00;98454.34;15271627;19;20467;-53
2023/06/29 02:52:56;;;;;;;1.50;0.80;;;;;;;13.44;100.00;98442.56;15269443;19;20010;-52
2023/06/29 02:58:21;;;;;;;2.13;0.90;;;;;;;13.41;100.00;98440.22;15272874;19;20035;-51
2023/06/29 03:03:52;;;;;;;1.85;1.00;;;;;;;13.39;100.00;98442.22;15274307;19;20644;-54
2023/06/29 03:09:19;;;;;;;1.13;0.70;;;;;;;13.34;100.00;98440.03;15275292;19;20355;-54
2023/06/29 03:14:45;;;;;;;1.33;0.90;;;;;;;13.33;100.00;98440.22;15274554;19;20098;-52
2023/06/29 03:20:14;;;;;;;3.17;0.82;;;;;;;13.32;100.00;98433.13;15269721;19;20735;-56
2023/06/29 03:25:38;;;;;;;1.95;0.80;;;;;;;13.30;100.00;98435.16;15272135;19;20354;-54
2023/06/29 03:31:02;;;;;;;1.58;0.80;;;;;;;13.28;100.00;98438.06;15272372;19;20034;-54
2023/06/29 03:36:32;;;;;;;3.45;1.00;;;;;;;13.28;100.00;98438.06;15273494;19;20019;-54
2023/06/29 03:41:57;;;;;;;2.38;0.80;;;;;;;13.26;100.00;98437.41;15271537;19;20022;-52
2023/06/29 03:47:21;;;;;;;3.50;0.90;;;;;;;13.28;100.00;98429.09;15267660;19;20727;-57
2023/06/29 03:52:48;;;;;;;1.35;0.80;;;;;;;13.28;100.00;98420.97;15258649;19;20010;-55
2023/06/29 03:58:14;;;;;;;2.28;1.00;;;;;;;13.29;100.00;98428.06;15265327;19;20442;-54
2023/06/29 04:03:40;;;;;;;2.17;1.00;;;;;;;13.30;100.00;98419.75;15270305;19;20113;-55
2023/06/29 04:09:07;;;;;;;1.00;0.80;;;;;;;13.34;100.00;98422.97;15277481;19;20021;-57
2023/06/29 04:14:32;;;;;;;1.27;0.80;;;;;;;13.35;100.00;98416.50;15301435;19;20015;-58
2023/06/29 04:19:57;;;;;;;1.73;1.00;;;;;;;13.40;100.00;98422.28;15301841;19;20486;-55
2023/06/29 04:25:25;;;;;;;2.58;0.90;;;;;;;13.42;100.00;98422.94;15294657;19;20452;-58
2023/06/29 04:30:50;;;;;;;1.25;0.80;;;;;;;13.50;100.00;98424.75;15303714;19;20014;-55
2023/06/29 04:36:17;;;;;;;1.30;0.68;;;;;;;13.54;100.00;98420.66;15301538;19;20006;-51
2023/06/29 04:41:46;;;;;;;1.55;0.82;;;;;;;13.60;100.00;98419.94;15299296;19;20017;-55
2023/06/29 04:47:10;;;;;;;3.13;0.90;;;;;;;13.65;100.00;98422.09;14789235;19;9999870;-55
2023/06/29 04:52:37;;;;;;;1.92;0.90;;;;;;;13.73;100.00;98422.03;15303359;19;20007;-56
2023/06/29 04:58:05;;;;;;;1.45;1.00;;;;;;;13.81;100.00;98413.00;15308877;19;20054;-57
2023/06/29 05:03:31;;;;;;;1.95;0.90;;;;;;;13.91;100.00;98416.28;15338981;19;20021;-51
2023/06/29 05:08:56;;;;;;;3.28;0.95;;;;;;;13.98;100.00;98413.69;15338573;19;20475;-54
2023/06/29 05:14:24;;;;;;;1.10;0.80;;;;;;;14.07;100.00;98409.88;15294315;19;20021;-56
2023/06/29 05:19:49;;;;;;;2.33;1.00;;;;;;;14.18;100.00;98409.44;15289382;19;20014;-57
2023/06/29 05:25:14;;;;;;;2.75;0.95;;;;;;;14.30;100.00;98399.00;15278814;19;20022;-58
2023/06/29 05:30:42;;;;;;;1.17;1.00;;;;;;;14.43;100.00;98397.50;15275934;19;20014;-58
2023/06/29 05:36:07;;;;;;;1.05;0.80;;;;;;;14.56;100.00;98404.97;15276208;19;20351;-59
2023/06/29 05:41:32;;;;;;;2.42;1.00;;;;;;;14.67;100.00;98398.25;15273512;19;20042;-55
2023/06/29 05:46:59;;;;;;;2.15;1.00;;;;;;;14.81;100.00;98394.72;15273920;19;20018;-57
2023/06/29 05:52:27;;;;;;;3.08;0.98;;;;;;;14.95;100.00;98390.28;15283215;19;20014;-58
2023/06/29 05:57:53;;;;;;;2.08;1.10;;;;;;;15.10;100.00;98388.38;15292709;19;20033;-58
2023/06/29 06:03:22;;;;;;;3.55;1.10;;;;;;;15.27;100.00;98388.13;15283877;19;20019;-58
2023/06/29 06:08:48;;;;;;;2.00;1.00;;;;;;;15.44;100.00;98394.13;15290964;19;20018;-59
2023/06/29 06:14:13;;;;;;;2.35;0.90;;;;;;;15.64;100.00;98388.09;15291429;19;20081;-59
2023/06/29 06:19:44;;;;;;;1.77;0.93;;;;;;;15.88;100.00;98389.56;15288829;19;20010;-58
2023/06/29 06:25:09;;;;;;;;;;;;;;;16.04;100.00;98382.16;15290950;19;20014;-58
2023/06/29 06:30:34;;;;;;;1.65;0.90;;;;;;;16.29;100.00;98385.25;15281030;19;20319;-58
2023/06/29 06:36:03;;;;;;;1.33;0.80;;;;;;;16.53;100.00;98375.78;15267202;19;20022;-57
2023/06/29 06:41:29;;;;;;;1.42;0.80;;;;;;;16.83;100.00;98380.09;15272211;19;20030;-55
2023/06/29 06:46:59;;;;;;;1.40;0.98;;;;;;;17.11;100.00;98385.47;15270788;19;20388;-59
2023/06/29 06:52:26;;;;;;;1.42;0.70;;;;;;;17.32;100.00;98383.66;15274134;19;20081;-58
2023/06/29 06:57:52;;;;;;;2.30;0.90;;;;;;;17.56;100.00;98383.06;15272465;19;20033;-59
2023/06/29 07:03:18;;;;;;;1.30;0.85;;;;;;;17.86;100.00;98388.09;15269998;19;20018;-59
2023/06/29 07:08:53;;;;;;;2.20;0.85;;;;;;;18.26;100.00;98378.25;15266248;19;20363;-56
2023/06/29 07:14:18;;;;;;;2.13;0.80;;;;;;;18.66;100.00;98360.94;15270872;19;20025;-58
2023/06/29 07:19:43;;;;;;;1.52;0.75;;;;;;;19.10;100.00;98364.78;15268423;19;20029;-54
2023/06/29 07:25:14;;;;;;;1.80;0.63;;;;;;;19.60;100.00;98361.31;15269474;19;20025;-56
2023/06/29 07:30:39;;;;;;;2.75;0.77;;;;;;;20.02;100.00;98353.44;15274148;19;20059;-56
2023/06/29 07:36:04;;;;;;;2.42;0.60;;;;;;;20.38;100.00;98340.03;15267532;19;20006;-57
2023/06/29 07:41:32;;;;;;;1.95;0.80;;;;;;;20.63;100.00;98342.69;15264627;19;20006;-55
2023/06/29 07:46:56;;;;;;;1.08;0.60;;;;;;;20.90;100.00;98341.56;15268990;19;20471;-57
2023/06/29 07:52:22;;;;;;;1.08;0.70;;;;;;;21.15;100.00;98344.16;15273573;19;20447;-58
2023/06/29 07:57:50;;;;;;;3.78;0.60;;;;;;;21.38;100.00;98331.59;15276667;19;20014;-56
2023/06/29 08:03:18;;;;;;;;;;;;;;;21.59;89.64;98334.88;15267761;19;20022;-58
2023/06/29 08:08:43;;;;;;;1.73;0.82;;;;;;;21.77;98.27;98333.97;15272190;19;19919;-58
2023/06/29 08:14:11;;;;;;;1.75;0.73;;;;;;;21.94;96.44;98318.50;15270790;19;20513;-57
2023/06/29 08:19:35;;;;;;;1.40;0.75;;;;;;;22.11;95.25;98326.84;15284489;19;20503;-57
2023/06/29 08:25:00;;;;;;;2.40;0.85;;;;;;;22.26;94.90;98320.06;15286196;19;20014;-58
2023/06/29 08:30:34;;;;;;;0.80;0.60;;;;;;;22.38;88.36;98300.81;15282171;19;20086;-57
2023/06/29 08:35:59;;;;;;;3.70;0.60;;;;;;;22.55;88.98;98301.78;15263324;19;20054;-58
2023/06/29 08:41:25;;;;;;;3.00;0.85;;;;;;;22.77;89.84;98298.38;15265556;19;20478;-58
2023/06/29 08:46:53;;;;;;;2.33;0.93;;;;;;;22.86;81.21;98296.91;15261132;19;20019;-52
2023/06/29 08:52:22;;;;;;;0.88;0.68;;;;;;;23.04;80.36;98297.78;15266786;19;20026;-54
2023/06/29 08:57:48;;;;;;;3.35;0.80;;;;;;;23.22;80.08;98288.53;15272126;19;20090;-51
2023/06/29 09:03:16;;;;;;;1.02;0.70;;;;;;;23.38;80.25;98287.72;15276149;19;20344;-56
2023/06/29 09:08:55;;;;;;;2.08;0.80;;;;;;;23.52;69.23;98288.22;15282558;19;20035;-58
2023/06/29 09:14:20;;;;;;;1.77;0.70;;;;;;;23.65;74.11;98283.47;15280618;19;20509;-54
2023/06/29 09:19:54;;;;;;;1.02;0.60;;;;;;;23.79;69.34;98278.47;15275508;19;20023;-55
2023/06/29 09:25:19;;;;;;;1.77;0.60;;;;;;;23.78;68.79;98282.31;15278392;19;20007;-50
2023/06/29 09:30:52;;;;;;;2.67;0.68;;;;;;;23.87;69.72;98277.22;15280562;19;20078;-56
2023/06/29 09:36:19;;;;;;;1.88;0.70;;;;;;;23.89;66.95;98275.03;15277623;19;20032;-56
2023/06/29 09:41:47;;;;;;;1.58;0.63;;;;;;;23.97;64.86;98278.22;15277746;19;20019;-54
2023/06/29 09:47:14;;;;;;;1.23;0.75;;;;;;;24.16;67.31;98275.19;15272934;19;20013;-56
2023/06/29 09:52:51;;;;;;;1.30;0.82;;;;;;;24.42;65.38;98268.09;15276711;19;20053;-56
2023/06/29 09:58:16;;;;;;;1.60;0.60;;;;;;;24.66;65.29;98261.50;15273654;19;20039;-53
2023/06/29 10:03:42;;;;;;;1.73;0.57;;;;;;;24.75;61.66;98254.47;15270545;19;20491;-57
2023/06/29 10:09:04;;;;;;;2.05;0.60;;;;;;;24.86;60.99;98252.66;15278385;19;20374;-58
2023/06/29 10:14:30;;;;;;;1.80;0.70;;;;;;;24.95;60.98;98242.81;15277617;19;20034;-54
2023/06/29 10:19:57;;;;;;;1.10;0.60;;;;;;;25.10;58.62;98236.66;15270941;19;20467;-52
2023/06/29 10:25:28;;;;;;;1.75;0.65;;;;;;;25.30;59.31;98229.66;15273983;19;20018;-55
2023/06/29 10:30:53;;;;;;;1.25;0.68;;;;;;;25.35;57.62;98227.78;15273996;19;20011;-53
2023/06/29 10:36:22;;;;;;;1.20;0.60;;;;;;;25.44;58.78;98222.66;15273122;19;20018;-57
2023/06/29 10:41:49;;;;;;;1.20;0.60;;;;;;;25.47;57.38;98213.81;15273781;19;20014;-57
2023/06/29 10:47:15;;;;;;;1.67;0.60;;;;;;;25.42;56.42;98221.22;15271393;19;20617;-52
2023/06/29 10:52:40;;;;;;;1.02;0.70;;;;;;;25.48;55.24;98196.19;15270715;19;20021;-48
2023/06/29 10:58:09;;;;;;;0.93;0.60;;;;;;;25.52;53.37;98202.84;15265550;19;20018;-49
2023/06/29 11:03:35;;;;;;;1.13;0.50;;;;;;;25.44;52.71;98185.94;15266178;19;20025;-50
2023/06/29 11:09:01;;;;;;;1.05;0.60;;;;;;;25.43;54.10;98176.84;15270952;19;20482;-48
2023/06/29 11:14:28;;;;;;;1.35;0.70;;;;;;;25.37;51.61;98177.88;15270893;19;20477;-46
2023/06/29 11:19:53;;;;;;;1.73;0.63;;;;;;;25.47;54.79;98172.44;15271632;19;20014;-49
2023/06/29 11:25:18;;;;;;;0.60;0.60;;;;;;;25.79;53.86;98171.56;15264027;19;20472;-46
2023/06/29 11:30:49;;;;;;;0.45;0.45;;;;;;;26.08;53.04;98168.38;15271609;19;20029;-47
2023/06/29 11:36:20;;;;;;;1.77;0.57;;;;;;;26.35;53.40;98156.38;15268427;19;20039;-47
2023/06/29 11:41:46;;;;;;;1.77;0.60;;;;;;;26.68;51.46;98145.94;15264515;19;20867;-46
2023/06/29 11:47:14;;;;;;;2.15;0.50;;;;;;;26.90;52.00;98150.41;15265292;19;20018;-47
2023/06/29 11:52:51;;;;;;;2.07;0.60;;;;;;;27.10;48.12;98146.03;15267463;19;20576;-48
2023/06/29 11:58:16;;;;;;;1.80;0.68;;;;;;;27.27;50.09;98141.03;15261131;19;20022;-46
2023/06/29 12:03:45;;;;;;;0.55;0.50;;;;;;;27.48;49.34;98130.78;15263863;19;20015;-48
2023/06/29 12:09:19;;;;;;;1.93;0.43;;;;;;;27.77;48.83;98129.34;15271194;19;20026;-46
2023/06/29 12:14:45;;;;;;;1.15;0.80;;;;;;;27.72;47.83;98124.66;15267874;19;20026;-49
2023/06/29 12:20:20;;;;;;;3.92;0.70;;;;;;;27.74;47.66;98113.28;15269679;19;20027;-45
2023/06/29 12:25:49;;;;;;;1.73;0.60;;;;;;;27.91;47.01;98108.25;15268735;19;20017;-47
2023/06/29 12:31:15;;;;;;;0.50;0.40;;;;;;;27.97;45.86;98112.66;15268792;19;20488;-46
2023/06/29 12:36:49;;;;;;;0.80;0.50;;;;;;;27.98;45.09;98105.19;15282184;19;21075;-46
2023/06/29 12:42:14;;;;;;;1.38;0.50;;;;;;;28.13;45.51;98107.09;15279928;19;20017;-47
2023/06/29 12:47:39;;;;;;;0.80;0.50;;;;;;;28.17;44.63;98105.38;15275623;19;20015;-47
2023/06/29 12:53:06;;;;;;;1.27;0.60;;;;;;;27.98;43.41;98099.66;15283304;19;20025;-47
2023/06/29 12:58:32;;;;;;;4.70;0.70;;;;;;;28.34;45.61;98095.88;15276621;19;20029;-46
2023/06/29 13:03:57;;;;;;;0.63;0.40;;;;;;;28.28;43.46;98095.09;15274224;19;20038;-49
2023/06/29 13:09:24;;;;;;;1.05;0.60;;;;;;;28.66;45.12;98091.78;15283247;19;20025;-47
2023/06/29 13:14:52;;;;;;;2.53;0.50;;;;;;;28.59;42.72;98081.88;15279717;19;20078;-47
2023/06/29 13:20:17;;;;;;;0.75;0.50;;;;;;;28.37;44.59;98076.72;15282299;19;20015;-46
2023/06/29 13:25:44;;;;;;;1.65;0.77;;;;;;;28.74;44.60;98074.59;15279046;19;20105;-46
2023/06/29 13:31:09;;;;;;;0.63;0.50;;;;;;;29.19;44.10;98066.97;15281611;19;20090;-47
2023/06/29 13:36:40;;;;;;;0.65;0.50;;;;;;;29.51;44.30;98071.09;15279127;19;20524;-45
2023/06/29 13:42:15;;;;;;;1.25;0.63;;;;;;;29.72;42.80;98054.19;15282426;19;20010;-48
2023/06/29 13:47:44;;;;;;;1.05;0.60;;;;;;;29.82;42.55;98053.25;15278507;19;20566;-48
2023/06/29 13:53:08;;;;;;;2.65;0.50;;;;;;;30.09;43.02;98055.41;15277651;19;20406;-46
2023/06/29 13:58:35;;;;;;;2.05;0.60;;;;;;;29.78;41.34;98061.34;15275011;19;20096;-47
2023/06/29 14:04:00;;;;;;;0.75;0.60;;;;;;;30.46;42.26;98057.66;15273901;19;20018;-46
2023/06/29 14:09:27;;;;;;;2.58;0.50;;;;;;;30.47;41.67;98042.63;15272978;19;20476;-47
2023/06/29 14:14:54;;;;;;;2.28;0.68;;;;;;;30.42;42.24;98041.59;15273703;19;20021;-49
2023/06/29 14:20:19;;;;;;;0.80;0.60;;;;;;;30.39;40.84;98042.22;15279110;19;20348;-47
2023/06/29 14:25:43;;;;;;;2.10;0.55;;;;;;;30.36;42.49;98040.03;15274574;19;20392;-48
2023/06/29 14:31:10;;;;;;;1.33;0.63;;;;;;;30.20;40.97;98044.13;15276922;19;20049;-47
2023/06/29 14:36:42;;;;;;;2.80;0.73;;;;;;;29.85;42.15;98026.81;15273618;19;20091;-48
2023/06/29 14:42:08;;;;;;;1.27;0.60;;;;;;;29.98;42.83;98026.97;15269315;19;20025;-48
2023/06/29 14:47:35;;;;;;;1.08;0.50;;;;;;;29.90;42.20;98019.25;15273843;19;20085;-46
2023/06/29 14:53:00;;;;;;;3.45;0.50;;;;;;;29.99;42.45;98016.66;15271861;19;20019;-48
2023/06/29 14:58:25;;;;;;;2.15;0.60;;;;;;;29.85;42.86;98008.22;15272489;19;20010;-50
2023/06/29 15:03:54;;;;;;;1.63;0.70;;;;;;;29.48;43.05;98007.03;15270001;19;20025;-47
2023/06/29 15:09:18;;;;;;;1.13;0.60;;;;;;;29.50;44.43;98000.06;15272730;19;20029;-49
2023/06/29 15:14:43;;;;;;;1.63;0.52;;;;;;;29.11;43.93;98009.34;15268316;19;20026;-49
2023/06/29 15:20:10;;;;;;;0.80;0.55;;;;;;;29.06;45.25;97998.31;15272205;19;20010;-44
2023/06/29 15:25:36;;;;;;;1.48;0.60;;;;;;;28.76;44.84;97994.72;15269639;19;20014;-48
2023/06/29 15:31:03;;;;;;;0.88;0.60;;;;;;;28.83;45.54;97989.66;15271507;19;20465;-48
2023/06/29 15:36:31;;;;;;;0.73;0.57;;;;;;;28.87;44.89;97984.38;15259623;19;20443;-47
2023/06/29 15:41:55;;;;;;;1.55;0.60;;;;;;;29.00;45.62;97986.44;15261563;19;20018;-47
2023/06/29 15:47:20;;;;;;;1.10;0.60;;;;;;;28.49;46.72;97989.66;15259541;19;20030;-47
2023/06/29 15:52:47;;;;;;;2.22;0.70;;;;;;;28.26;47.10;97983.75;15268280;19;20344;-44
2023/06/29 15:58:12;;;;;;;1.50;0.70;;;;;;;28.47;48.13;97981.66;15264001;19;20024;-45
2023/06/29 16:03:36;;;;;;;0.57;0.47;;;;;;;28.55;47.78;97969.94;15262581;19;20014;-46
2023/06/29 16:09:03;;;;;;;2.85;0.60;;;;;;;28.47;46.72;97967.78;15267626;19;20018;-48
2023/06/29 16:14:29;;;;;;;0.60;0.50;;;;;;;28.34;47.37;97966.53;15261858;19;20097;-45
2023/06/29 16:19:55;;;;;;;1.77;0.52;;;;;;;27.88;47.81;97952.94;15265358;19;20025;-45
2023/06/29 16:25:23;;;;;;;1.10;0.60;;;;;;;27.96;47.24;97953.19;15263397;19;20025;-47
2023/06/29 16:30:49;;;;;;;2.25;0.60;;;;;;;27.96;47.65;97955.13;15266735;19;20042;-45
2023/06/29 16:36:14;;;;;;;2.55;0.60;;;;;;;27.97;48.20;97949.31;15262693;19;20022;-47
2023/06/29 16:41:42;;;;;;;1.38;0.60;;;;;;;27.79;47.91;97942.50;15264263;19;20019;-47
2023/06/29 16:47:06;;;;;;;2.28;0.50;;;;;;;27.57;49.74;97940.16;15260910;19;20025;-51
2023/06/29 16:52:31;;;;;;;1.17;0.52;;;;;;;27.39;51.12;97938.81;15263720;19;20044;-45
2023/06/29 16:57:58;;;;;;;3.33;0.73;;;;;;;27.20;51.51;97935.84;15263699;19;20022;-45
2023/06/29 17:03:24;;;;;;;0.57;0.57;;;;;;;27.05;52.01;97933.94;15259446;19;20031;-49
2023/06/29 17:08:51;;;;;;;0.73;0.50;;;;;;;26.88;53.44;97934.28;15266245;19;20021;-45
2023/06/29 17:14:18;;;;;;;0.75;0.45;;;;;;;26.77;53.78;97925.97;15264574;19;20014;-46
2023/06/29 17:19:45;;;;;;;0.90;0.70;;;;;;;26.58;54.81;97933.22;15271314;19;20078;-48
2023/06/29 17:25:10;;;;;;;3.42;0.70;;;;;;;26.47;57.03;97940.66;15273165;19;20023;-47
2023/06/29 17:30:38;;;;;;;3.30;0.70;;;;;;;26.32;59.14;97936.00;15280296;19;20015;-48
2023/06/29 17:36:09;;;;;;;2.15;0.60;;;;;;;26.20;60.20;97925.22;15276183;19;20501;-46
2023/06/29 17:41:34;;;;;;;3.05;0.60;;;;;;;26.11;62.08;97924.09;15275740;19;20014;-49
2023/06/29 17:47:02;;;;;;;0.47;0.47;;;;;;;25.93;63.71;97925.47;15268551;19;20025;-50
2023/06/29 17:52:27;;;;;;;2.90;0.68;;;;;;;25.69;65.88;97928.75;15274496;19;20014;-48
2023/06/29 17:57:52;;;;;;;2.95;0.68;;;;;;;25.49;66.38;97924.81;15274285;19;20074;-48
2023/06/29 18:03:21;;;;;;;2.78;0.60;;;;;;;25.36;68.93;97922.53;15273797;19;20014;-45
2023/06/29 18:08:46;;;;;;;1.23;0.60;;;;;;;25.26;68.77;97922.50;15277170;19;20089;-46
2023/06/29 18:14:11;;;;;;;1.58;0.77;;;;;;;25.17;71.49;97928.53;15274852;19;20471;-46
2023/06/29 18:19:39;;;;;;;2.15;0.70;;;;;;;25.07;72.31;97921.03;15272207;19;20634;-49
2023/06/29 18:25:04;;;;;;;2.50;0.80;;;;;;;24.89;74.65;97916.81;15267218;19;20036;-46
2023/06/29 18:30:29;;;;;;;1.27;0.80;;;;;;;24.79;75.17;97914.00;15275221;19;20033;-45
2023/06/29 18:35:57;;;;;;;0.75;0.70;;;;;;;24.64;77.84;97920.22;15271235;19;20471;-49
2023/06/29 18:41:36;;;;;;;1.42;0.70;;;;;;;24.55;80.61;97917.13;15275218;19;20543;-49
2023/06/29 18:47:10;;;;;;;0.85;0.70;;;;;;;24.42;83.63;97915.69;15271550;19;20016;-45
2023/06/29 18:52:39;;;;;;;2.72;0.90;;;;;;;24.31;84.24;97920.28;15274622;19;20627;-47
2023/06/29 18:58:06;;;;;;;1.08;0.90;;;;;;;24.15;88.71;97918.50;15265927;19;20018;-50
2023/06/29 19:03:30;;;;;;;1.45;0.75;;;;;;;24.04;89.51;97914.00;15268805;19;20014;-47
2023/06/29 19:08:58;;;;;;;2.38;0.80;;;;;;;23.98;94.28;97921.38;15278022;19;20403;-47
2023/06/29 19:14:24;;;;;;;0.93;0.90;;;;;;;23.91;95.42;97927.06;15276770;19;20011;-44
2023/06/29 19:19:49;;;;;;;4.05;1.02;;;;;;;23.82;100.00;97932.19;15273596;19;20014;-46
2023/06/29 19:25:17;;;;;;;4.55;1.35;;;;;;;23.72;100.00;97939.50;15244961;19;20010;-48
2023/06/29 19:30:43;;;;;;;2.08;1.10;;;;;;;23.63;100.00;97950.97;15258404;19;20018;-48
2023/06/29 19:36:07;;;;;;;2.15;1.00;;;;;;;23.57;100.00;97954.78;15262529;19;20014;-44
2023/06/29 19:41:37;;;;;;;1.38;0.95;;;;;;;23.56;100.00;97958.63;15265805;19;20037;-48
2023/06/29 19:47:09;;;;;;;4.10;1.15;;;;;;;23.51;100.00;97964.03;15266145;19;20077;-45
2023/06/29 19:52:34;;;;;;;1.80;1.08;;;;;;;23.48;100.00;97976.38;15265964;19;20463;-50
2023/06/29 19:58:03;;;;;;;1.25;1.10;;;;;;;23.45;100.00;97967.81;15267535;19;20457;-47
2023/06/29 20:03:28;;;;;;;1.55;1.00;;;;;;;23.36;100.00;97976.50;15260980;19;20816;-46
2023/06/29 20:09:03;;;;;;;3.47;1.00;;;;;;;23.29;100.00;97975.88;15266901;19;20018;-46
2023/06/29 20:14:34;;;;;;;3.80;1.08;;;;;;;23.25;100.00;97980.22;15275998;19;20010;-49
2023/06/29 20:19:58;;;;;;;2.38;1.20;;;;;;;23.20;100.00;97972.72;15263413;19;20070;-44
2023/06/29 20:25:24;;;;;;;1.48;1.10;;;;;;;23.17;100.00;97977.88;15261863;19;20017;-45
2023/06/29 20:30:51;;;;;;;2.13;1.08;;;;;;;23.12;100.00;97978.66;15262886;19;20028;-47
2023/06/29 20:36:22;;;;;;;1.60;1.10;;;;;;;23.05;100.00;97973.34;15246998;19;20013;-48
2023/06/29 20:41:48;;;;;;;2.58;1.00;;;;;;;23.01;100.00;97971.34;15260055;19;20353;-51
2023/06/29 20:47:15;;;;;;;3.08;1.25;;;;;;;22.96;100.00;97968.53;15263529;19;20741;-51
2023/06/29 20:52:41;;;;;;;1.55;1.10;;;;;;;22.91;100.00;97972.03;15270742;19;20018;-52
2023/06/29 20:58:08;;;;;;;2.42;1.20;;;;;;;22.83;100.00;97956.00;15277186;19;20029;-53
2023/06/29 21:03:37;;;;;;;5.25;1.30;;;;;;;22.72;100.00;97961.34;15276028;19;20376;-52
2023/06/29 21:09:02;;;;;;;3.28;1.42;;;;;;;22.59;100.00;97967.19;15272543;19;20032;-50
2023/06/29 21:14:28;;;;;;;4.53;1.60;;;;;;;22.53;100.00;97962.66;15278244;19;20014;-48
2023/06/29 21:19:55;;;;;;;2.60;1.48;;;;;;;22.42;100.00;97965.25;15280098;19;20021;-47
2023/06/29 21:25:22;;;;;;;4.47;1.70;;;;;;;22.38;100.00;97963.22;15276117;19;20017;-48
2023/06/29 21:30:47;;;;;;;3.22;1.60;;;;;;;22.33;100.00;97963.97;15277127;19;20020;-48
2023/06/29 21:36:22;;;;;;;1.80;1.50;;;;;;;22.30;100.00;97964.47;15276629;19;20363;-51
2023/06/29 21:41:47;;;;;;;3.53;1.60;;;;;;;22.26;100.00;97958.66;15277331;19;20020;-50
2023/06/29 21:47:12;;;;;;;4.60;1.63;;;;;;;22.22;100.00;97965.75;15274119;19;20010;-51
2023/06/29 21:52:40;;;;;;;4.93;1.60;;;;;;;22.18;100.00;97959.06;15275323;19;20018;-48
2023/06/29 21:58:05;;;;;;;2.63;1.70;;;;;;;22.12;100.00;97958.16;15275197;19;20018;-49
2023/06/29 22:03:30;;;;;;;3.58;1.60;;;;;;;22.01;100.00;97956.31;15274402;19;20085;-48
2023/06/29 22:08:57;;;;;;;2.92;1.60;;;;;;;21.85;100.00;97955.22;15270549;19;20343;-51
2023/06/29 22:14:22;;;;;;;4.07;1.75;;;;;;;21.74;100.00;97945.97;15275615;19;20021;-49
2023/06/29 22:19:46;;;;;;;3.92;1.55;;;;;;;21.67;100.00;97957.06;15278114;19;20011;-49
2023/06/29 22:25:14;;;;;;;3.33;1.70;;;;;;;21.66;100.00;97954.59;15273828;19;20026;-52
2023/06/29 22:30:38;;;;;;;3.58;1.70;;;;;;;21.62;100.00;97950.66;15275693;19;20038;-50
2023/06/29 22:36:03;;;;;;;3.30;1.75;;;;;;;21.63;100.00;97949.59;15273287;19;20026;-55
2023/06/29 22:41:30;;;;;;;3.08;2.00;;;;;;;21.60;100.00;97939.94;15270459;19;20042;-52
2023/06/29 22:46:57;;;;;;;2.50;1.95;;;;;;;21.60;100.00;97947.31;15272734;19;20028;-49
2023/06/29 22:52:22;;;;;;;2.42;1.83;;;;;;;21.58;100.00;97954.97;15275545;19;20014;-52
2023/06/29 22:57:50;;;;;;;3.15;2.08;;;;;;;21.53;100.00;97961.16;15272342;19;20106;-53
2023/06/29 23:03:14;;;;;;;2.45;1.70;;;;;;;21.33;100.00;97969.81;15272234;19;20031;-50
2023/06/29 23:08:39;;;;;;;1.88;1.45;;;;;;;21.09;100.00;97965.19;15269891;19;20014;-54
2023/06/29 23:14:13;;;;;;;5.60;1.88;;;;;;;20.99;100.00;97961.44;15264788;19;20018;-50
2023/06/29 23:19:38;;;;;;;2.58;1.58;;;;;;;20.89;100.00;97970.25;15272562;19;20074;-53
2023/06/29 23:25:06;;;;;;;3.60;1.60;;;;;;;20.82;100.00;97967.63;15268949;19;20479;-51
2023/06/29 23:30:33;;;;;;;3.42;1.67;;;;;;;20.67;100.00;97959.03;15272443;19;20028;-50
2023/06/29 23:35:58;;;;;;;2.05;1.70;;;;;;;20.61;100.00;97956.19;15269144;19;20014;-54
2023/06/29 23:41:27;;;;;;;3.55;1.80;;;;;;;20.53;100.00;97950.22;15271106;19;20006;-53
2023/06/29 23:46:55;;;;;;;2.15;1.75;;;;;;;20.49;100.00;97955.34;15262966;19;20074;-50
2023/06/29 23:52:19;;;;;;;3.90;2.15;;;;;;;20.46;100.00;97953.91;15270219;19;20033;-50
2023/06/29 23:57:44;;;;;;;2.38;1.80;;;;;;;20.54;100.00;97949.97;15268425;19;20033;-49
